sensor_id;sensor_type;location;lat;lon;timestamp;temperature;humidity
28677;DHT22;15858;48.338;11.078;2023-07-20T00:02:25;21.60;98.20
28677;DHT22;15858;48.338;11.078;2023-07-20T00:04:52;21.60;98.20
28677;DHT22;15858;48.338;11.078;2023-07-20T00:07:18;21.70;98.10
28677;DHT22;15858;48.338;11.078;2023-07-20T00:09:45;21.70;97.80
28677;DHT22;15858;48.338;11.078;2023-07-20T00:12:12;21.50;97.90
28677;DHT22;15858;48.338;11.078;2023-07-20T00:14:38;21.60;98.10
28677;DHT22;15858;48.338;11.078;2023-07-20T00:17:05;21.50;98.50
28677;DHT22;15858;48.338;11.078;2023-07-20T00:19:32;21.40;98.50
28677;DHT22;15858;48.338;11.078;2023-07-20T00:21:59;21.40;98.60
28677;DHT22;15858;48.338;11.078;2023-07-20T00:24:26;21.40;98.90
28677;DHT22;15858;48.338;11.078;2023-07-20T00:26:52;21.40;99.50
28677;DHT22;15858;48.338;11.078;2023-07-20T00:29:19;21.30;99.00
28677;DHT22;15858;48.338;11.078;2023-07-20T00:31:46;21.30;99.80
28677;DHT22;15858;48.338;11.078;2023-07-20T00:34:14;21.40;99.80
28677;DHT22;15858;48.338;11.078;2023-07-20T00:36:40;21.40;99.50
28677;DHT22;15858;48.338;11.078;2023-07-20T00:39:07;21.40;99.40
28677;DHT22;15858;48.338;11.078;2023-07-20T00:41:33;21.40;99.20
28677;DHT22;15858;48.338;11.078;2023-07-20T00:44:00;21.30;99.20
28677;DHT22;15858;48.338;11.078;2023-07-20T00:46:27;21.30;99.50
28677;DHT22;15858;48.338;11.078;2023-07-20T00:48:54;21.30;99.70
28677;DHT22;15858;48.338;11.078;2023-07-20T00:51:21;21.30;99.90
28677;DHT22;15858;48.338;11.078;2023-07-20T00:53:49;21.20;99.60
28677;DHT22;15858;48.338;11.078;2023-07-20T00:56:16;21.30;99.70
28677;DHT22;15858;48.338;11.078;2023-07-20T00:58:43;21.20;99.80
28677;DHT22;15858;48.338;11.078;2023-07-20T01:01:10;21.30;99.40
28677;DHT22;15858;48.338;11.078;2023-07-20T01:03:37;21.20;99.50
28677;DHT22;15858;48.338;11.078;2023-07-20T01:06:13;21.20;99.70
28677;DHT22;15858;48.338;11.078;2023-07-20T01:09:08;21.10;99.70
28677;DHT22;15858;48.338;11.078;2023-07-20T01:11:57;21.20;99.80
28677;DHT22;15858;48.338;11.078;2023-07-20T01:14:26;21.10;99.40
28677;DHT22;15858;48.338;11.078;2023-07-20T01:16:53;21.00;99.90
28677;DHT22;15858;48.338;11.078;2023-07-20T01:19:19;21.00;99.90
28677;DHT22;15858;48.338;11.078;2023-07-20T01:28:08;21.00;99.30
28677;DHT22;15858;48.338;11.078;2023-07-20T01:33:07;20.80;99.10
28677;DHT22;15858;48.338;11.078;2023-07-20T01:35:36;20.90;99.40
28677;DHT22;15858;48.338;11.078;2023-07-20T01:38:04;20.80;99.30
28677;DHT22;15858;48.338;11.078;2023-07-20T01:40:31;20.80;98.90
28677;DHT22;15858;48.338;11.078;2023-07-20T01:42:58;20.70;98.40
28677;DHT22;15858;48.338;11.078;2023-07-20T01:45:24;20.70;98.30
28677;DHT22;15858;48.338;11.078;2023-07-20T01:47:51;20.70;98.30
28677;DHT22;15858;48.338;11.078;2023-07-20T01:50:18;20.80;98.30
28677;DHT22;15858;48.338;11.078;2023-07-20T01:52:44;20.80;98.30
28677;DHT22;15858;48.338;11.078;2023-07-20T01:55:11;20.80;98.20
28677;DHT22;15858;48.338;11.078;2023-07-20T01:57:38;20.70;98.40
28677;DHT22;15858;48.338;11.078;2023-07-20T02:00:05;20.70;97.80
28677;DHT22;15858;48.338;11.078;2023-07-20T02:02:32;20.60;98.40
28677;DHT22;15858;48.338;11.078;2023-07-20T02:04:58;20.60;98.60
28677;DHT22;15858;48.338;11.078;2023-07-20T02:07:25;20.50;98.00
28677;DHT22;15858;48.338;11.078;2023-07-20T02:09:52;20.60;98.40
28677;DHT22;15858;48.338;11.078;2023-07-20T02:12:18;20.50;98.20
28677;DHT22;15858;48.338;11.078;2023-07-20T02:14:45;20.40;98.00
28677;DHT22;15858;48.338;11.078;2023-07-20T02:17:12;20.50;98.60
28677;DHT22;15858;48.338;11.078;2023-07-20T02:19:40;20.50;98.00
28677;DHT22;15858;48.338;11.078;2023-07-20T02:22:07;20.50;98.20
28677;DHT22;15858;48.338;11.078;2023-07-20T02:24:34;20.60;98.00
28677;DHT22;15858;48.338;11.078;2023-07-20T02:27:00;20.50;97.80
28677;DHT22;15858;48.338;11.078;2023-07-20T02:29:27;20.50;97.80
28677;DHT22;15858;48.338;11.078;2023-07-20T02:31:54;20.50;97.90
28677;DHT22;15858;48.338;11.078;2023-07-20T02:34:20;20.50;98.10
28677;DHT22;15858;48.338;11.078;2023-07-20T02:36:47;20.50;98.30
28677;DHT22;15858;48.338;11.078;2023-07-20T02:39:13;20.30;98.30
28677;DHT22;15858;48.338;11.078;2023-07-20T02:41:41;20.20;98.40
28677;DHT22;15858;48.338;11.078;2023-07-20T02:44:08;20.20;98.20
28677;DHT22;15858;48.338;11.078;2023-07-20T02:46:34;20.10;98.30
28677;DHT22;15858;48.338;11.078;2023-07-20T02:49:01;20.10;98.60
28677;DHT22;15858;48.338;11.078;2023-07-20T02:51:28;20.10;98.60
28677;DHT22;15858;48.338;11.078;2023-07-20T02:53:54;20.00;98.80
28677;DHT22;15858;48.338;11.078;2023-07-20T02:56:21;20.00;99.00
28677;DHT22;15858;48.338;11.078;2023-07-20T02:58:48;20.00;99.20
28677;DHT22;15858;48.338;11.078;2023-07-20T03:01:14;20.10;99.50
28677;DHT22;15858;48.338;11.078;2023-07-20T03:03:42;20.00;98.90
28677;DHT22;15858;48.338;11.078;2023-07-20T03:06:09;19.90;99.30
28677;DHT22;15858;48.338;11.078;2023-07-20T03:08:35;19.90;99.40
28677;DHT22;15858;48.338;11.078;2023-07-20T03:11:02;19.90;99.50
28677;DHT22;15858;48.338;11.078;2023-07-20T03:13:29;19.90;99.30
28677;DHT22;15858;48.338;11.078;2023-07-20T03:15:55;19.90;99.70
28677;DHT22;15858;48.338;11.078;2023-07-20T03:18:22;20.00;99.70
28677;DHT22;15858;48.338;11.078;2023-07-20T03:20:49;19.90;99.30
28677;DHT22;15858;48.338;11.078;2023-07-20T03:23:16;19.90;99.40
28677;DHT22;15858;48.338;11.078;2023-07-20T03:25:42;19.90;99.00
28677;DHT22;15858;48.338;11.078;2023-07-20T03:28:09;19.80;99.10
28677;DHT22;15858;48.338;11.078;2023-07-20T03:30:36;19.90;99.50
28677;DHT22;15858;48.338;11.078;2023-07-20T03:33:02;19.90;99.00
28677;DHT22;15858;48.338;11.078;2023-07-20T03:35:29;19.80;99.20
28677;DHT22;15858;48.338;11.078;2023-07-20T03:37:56;19.80;99.90
28677;DHT22;15858;48.338;11.078;2023-07-20T03:40:22;19.80;99.60
28677;DHT22;15858;48.338;11.078;2023-07-20T03:42:49;19.70;99.60
28677;DHT22;15858;48.338;11.078;2023-07-20T03:45:16;19.70;99.90
28677;DHT22;15858;48.338;11.078;2023-07-20T03:47:42;19.70;99.90
28677;DHT22;15858;48.338;11.078;2023-07-20T03:50:09;19.70;99.90
28677;DHT22;15858;48.338;11.078;2023-07-20T03:52:36;19.80;99.90
28677;DHT22;15858;48.338;11.078;2023-07-20T03:55:03;19.80;99.90
28677;DHT22;15858;48.338;11.078;2023-07-20T03:57:29;19.70;99.90
28677;DHT22;15858;48.338;11.078;2023-07-20T03:59:56;19.80;99.90
28677;DHT22;15858;48.338;11.078;2023-07-20T04:02:22;19.70;99.90
28677;DHT22;15858;48.338;11.078;2023-07-20T04:04:49;19.70;99.90
28677;DHT22;15858;48.338;11.078;2023-07-20T04:07:16;19.60;99.90
28677;DHT22;15858;48.338;11.078;2023-07-20T04:09:43;19.60;99.90
28677;DHT22;15858;48.338;11.078;2023-07-20T04:12:09;19.60;99.90
28677;DHT22;15858;48.338;11.078;2023-07-20T04:14:36;19.50;99.90
28677;DHT22;15858;48.338;11.078;2023-07-20T04:17:03;19.40;99.90
28677;DHT22;15858;48.338;11.078;2023-07-20T04:19:30;19.50;99.90
28677;DHT22;15858;48.338;11.078;2023-07-20T04:21:56;19.50;99.90
28677;DHT22;15858;48.338;11.078;2023-07-20T04:24:23;19.40;99.90
28677;DHT22;15858;48.338;11.078;2023-07-20T04:26:50;19.40;99.90
28677;DHT22;15858;48.338;11.078;2023-07-20T04:29:16;19.40;99.90
28677;DHT22;15858;48.338;11.078;2023-07-20T04:31:43;19.30;99.90
28677;DHT22;15858;48.338;11.078;2023-07-20T04:34:09;19.40;99.90
28677;DHT22;15858;48.338;11.078;2023-07-20T04:36:36;19.20;99.80
28677;DHT22;15858;48.338;11.078;2023-07-20T04:39:03;19.20;99.30
28677;DHT22;15858;48.338;11.078;2023-07-20T04:41:33;19.20;99.90
28677;DHT22;15858;48.338;11.078;2023-07-20T04:44:00;19.20;99.90
28677;DHT22;15858;48.338;11.078;2023-07-20T04:46:27;19.30;99.80
28677;DHT22;15858;48.338;11.078;2023-07-20T04:48:53;19.30;99.80
28677;DHT22;15858;48.338;11.078;2023-07-20T04:51:20;19.20;99.50
28677;DHT22;15858;48.338;11.078;2023-07-20T04:53:47;19.10;99.50
28677;DHT22;15858;48.338;11.078;2023-07-20T04:56:14;19.10;99.50
28677;DHT22;15858;48.338;11.078;2023-07-20T04:58:41;19.10;99.60
28677;DHT22;15858;48.338;11.078;2023-07-20T05:01:08;19.10;99.90
28677;DHT22;15858;48.338;11.078;2023-07-20T05:03:35;19.10;99.90
28677;DHT22;15858;48.338;11.078;2023-07-20T05:06:02;19.10;99.90
28677;DHT22;15858;48.338;11.078;2023-07-20T05:08:28;19.10;99.90
28677;DHT22;15858;48.338;11.078;2023-07-20T05:10:55;19.00;99.90
28677;DHT22;15858;48.338;11.078;2023-07-20T05:13:21;19.00;99.90
28677;DHT22;15858;48.338;11.078;2023-07-20T05:15:51;19.10;99.90
28677;DHT22;15858;48.338;11.078;2023-07-20T05:18:19;19.10;99.90
28677;DHT22;15858;48.338;11.078;2023-07-20T05:20:46;19.10;99.90
28677;DHT22;15858;48.338;11.078;2023-07-20T05:23:13;19.10;99.90
28677;DHT22;15858;48.338;11.078;2023-07-20T05:25:40;19.10;99.90
28677;DHT22;15858;48.338;11.078;2023-07-20T05:28:07;19.10;99.90
28677;DHT22;15858;48.338;11.078;2023-07-20T05:30:34;19.10;99.90
28677;DHT22;15858;48.338;11.078;2023-07-20T05:33:00;19.20;99.90
28677;DHT22;15858;48.338;11.078;2023-07-20T05:35:27;19.20;99.90
28677;DHT22;15858;48.338;11.078;2023-07-20T05:37:54;19.30;99.90
28677;DHT22;15858;48.338;11.078;2023-07-20T05:40:20;19.30;99.90
28677;DHT22;15858;48.338;11.078;2023-07-20T05:42:48;19.20;99.90
28677;DHT22;15858;48.338;11.078;2023-07-20T05:45:15;19.30;99.90
28677;DHT22;15858;48.338;11.078;2023-07-20T05:47:41;19.30;99.90
28677;DHT22;15858;48.338;11.078;2023-07-20T05:50:09;19.40;99.90
28677;DHT22;15858;48.338;11.078;2023-07-20T05:52:36;19.60;99.90
28677;DHT22;15858;48.338;11.078;2023-07-20T05:55:03;19.60;99.50
28677;DHT22;15858;48.338;11.078;2023-07-20T05:57:30;19.70;99.90
28677;DHT22;15858;48.338;11.078;2023-07-20T05:59:56;19.80;99.90
28677;DHT22;15858;48.338;11.078;2023-07-20T06:02:23;19.90;99.90
28677;DHT22;15858;48.338;11.078;2023-07-20T06:04:50;20.10;99.90
28677;DHT22;15858;48.338;11.078;2023-07-20T06:07:16;20.00;99.00
28677;DHT22;15858;48.338;11.078;2023-07-20T06:09:43;20.00;99.30
28677;DHT22;15858;48.338;11.078;2023-07-20T06:12:10;19.90;98.70
28677;DHT22;15858;48.338;11.078;2023-07-20T06:14:36;19.90;98.90
28677;DHT22;15858;48.338;11.078;2023-07-20T06:17:03;19.70;99.20
28677;DHT22;15858;48.338;11.078;2023-07-20T06:19:30;19.60;99.80
28677;DHT22;15858;48.338;11.078;2023-07-20T06:21:56;19.60;99.60
28677;DHT22;15858;48.338;11.078;2023-07-20T06:24:23;19.70;99.70
28677;DHT22;15858;48.338;11.078;2023-07-20T06:26:50;19.50;99.60
28677;DHT22;15858;48.338;11.078;2023-07-20T06:29:17;19.50;99.80
28677;DHT22;15858;48.338;11.078;2023-07-20T06:31:43;19.50;99.90
28677;DHT22;15858;48.338;11.078;2023-07-20T06:34:10;19.40;99.40
28677;DHT22;15858;48.338;11.078;2023-07-20T06:36:37;19.50;99.90
28677;DHT22;15858;48.338;11.078;2023-07-20T06:39:04;19.40;99.80
28677;DHT22;15858;48.338;11.078;2023-07-20T06:41:33;19.40;99.80
28677;DHT22;15858;48.338;11.078;2023-07-20T06:44:03;19.60;99.80
28677;DHT22;15858;48.338;11.078;2023-07-20T06:46:29;19.70;99.70
28677;DHT22;15858;48.338;11.078;2023-07-20T06:48:56;19.80;99.70
28677;DHT22;15858;48.338;11.078;2023-07-20T06:51:26;19.90;99.50
28677;DHT22;15858;48.338;11.078;2023-07-20T06:53:52;20.00;99.30
28677;DHT22;15858;48.338;11.078;2023-07-20T06:56:19;20.10;99.90
28677;DHT22;15858;48.338;11.078;2023-07-20T06:58:50;20.00;99.60
28677;DHT22;15858;48.338;11.078;2023-07-20T07:01:17;20.10;99.50
28677;DHT22;15858;48.338;11.078;2023-07-20T07:03:43;20.20;99.80
28677;DHT22;15858;48.338;11.078;2023-07-20T07:06:10;20.20;99.30
28677;DHT22;15858;48.338;11.078;2023-07-20T07:08:37;20.10;98.40
28677;DHT22;15858;48.338;11.078;2023-07-20T07:11:04;20.20;98.70
28677;DHT22;15858;48.338;11.078;2023-07-20T07:13:30;20.30;98.40
28677;DHT22;15858;48.338;11.078;2023-07-20T07:15:57;20.30;98.40
28677;DHT22;15858;48.338;11.078;2023-07-20T07:18:24;20.20;98.60
28677;DHT22;15858;48.338;11.078;2023-07-20T07:20:53;20.20;98.80
28677;DHT22;15858;48.338;11.078;2023-07-20T07:23:20;20.10;98.30
28677;DHT22;15858;48.338;11.078;2023-07-20T07:25:48;20.20;98.50
28677;DHT22;15858;48.338;11.078;2023-07-20T07:28:15;20.40;98.90
28677;DHT22;15858;48.338;11.078;2023-07-20T07:30:41;20.40;98.30
28677;DHT22;15858;48.338;11.078;2023-07-20T07:33:08;20.30;98.50
28677;DHT22;15858;48.338;11.078;2023-07-20T07:35:35;20.30;98.30
28677;DHT22;15858;48.338;11.078;2023-07-20T07:38:01;20.30;98.40
28677;DHT22;15858;48.338;11.078;2023-07-20T07:40:48;20.20;98.50
28677;DHT22;15858;48.338;11.078;2023-07-20T07:43:15;20.30;98.30
28677;DHT22;15858;48.338;11.078;2023-07-20T07:45:41;20.40;98.50
28677;DHT22;15858;48.338;11.078;2023-07-20T07:48:08;20.40;97.50
28677;DHT22;15858;48.338;11.078;2023-07-20T07:50:35;20.40;97.90
28677;DHT22;15858;48.338;11.078;2023-07-20T07:53:02;20.30;97.40
28677;DHT22;15858;48.338;11.078;2023-07-20T07:55:28;20.40;97.90
28677;DHT22;15858;48.338;11.078;2023-07-20T07:57:55;20.50;97.20
28677;DHT22;15858;48.338;11.078;2023-07-20T08:00:22;20.50;97.00
28677;DHT22;15858;48.338;11.078;2023-07-20T08:02:50;20.50;97.00
28677;DHT22;15858;48.338;11.078;2023-07-20T08:05:17;20.60;97.60
28677;DHT22;15858;48.338;11.078;2023-07-20T08:07:44;20.70;96.90
28677;DHT22;15858;48.338;11.078;2023-07-20T08:10:11;20.70;96.60
28677;DHT22;15858;48.338;11.078;2023-07-20T08:12:38;20.90;96.60
28677;DHT22;15858;48.338;11.078;2023-07-20T08:15:05;21.10;96.30
28677;DHT22;15858;48.338;11.078;2023-07-20T08:17:31;20.80;96.20
28677;DHT22;15858;48.338;11.078;2023-07-20T08:19:58;20.90;96.10
28677;DHT22;15858;48.338;11.078;2023-07-20T08:22:25;20.80;96.50
28677;DHT22;15858;48.338;11.078;2023-07-20T08:24:52;21.10;95.30
28677;DHT22;15858;48.338;11.078;2023-07-20T08:27:18;21.00;95.20
28677;DHT22;15858;48.338;11.078;2023-07-20T08:29:45;21.20;95.20
28677;DHT22;15858;48.338;11.078;2023-07-20T08:32:12;21.30;96.20
28677;DHT22;15858;48.338;11.078;2023-07-20T08:34:39;21.50;96.20
28677;DHT22;15858;48.338;11.078;2023-07-20T08:37:05;21.70;94.80
28677;DHT22;15858;48.338;11.078;2023-07-20T08:39:32;21.70;95.00
28677;DHT22;15858;48.338;11.078;2023-07-20T08:42:01;21.90;94.90
28677;DHT22;15858;48.338;11.078;2023-07-20T08:44:28;22.00;94.60
28677;DHT22;15858;48.338;11.078;2023-07-20T08:46:55;22.10;95.00
28677;DHT22;15858;48.338;11.078;2023-07-20T08:49:22;22.40;95.10
28677;DHT22;15858;48.338;11.078;2023-07-20T08:51:49;22.40;93.80
28677;DHT22;15858;48.338;11.078;2023-07-20T08:54:17;22.00;93.40
28677;DHT22;15858;48.338;11.078;2023-07-20T08:56:45;22.00;93.40
28677;DHT22;15858;48.338;11.078;2023-07-20T08:59:15;21.80;93.30
28677;DHT22;15858;48.338;11.078;2023-07-20T09:01:44;21.80;93.80
28677;DHT22;15858;48.338;11.078;2023-07-20T09:04:11;21.80;93.80
28677;DHT22;15858;48.338;11.078;2023-07-20T09:06:38;21.90;93.90
28677;DHT22;15858;48.338;11.078;2023-07-20T09:09:05;22.10;94.40
28677;DHT22;15858;48.338;11.078;2023-07-20T09:11:32;22.30;93.70
28677;DHT22;15858;48.338;11.078;2023-07-20T09:14:06;22.50;94.60
28677;DHT22;15858;48.338;11.078;2023-07-20T09:16:47;22.80;92.60
28677;DHT22;15858;48.338;11.078;2023-07-20T09:19:15;23.00;92.30
28677;DHT22;15858;48.338;11.078;2023-07-20T09:21:46;23.20;90.60
28677;DHT22;15858;48.338;11.078;2023-07-20T09:24:15;23.10;91.60
28677;DHT22;15858;48.338;11.078;2023-07-20T09:26:44;23.20;90.70
28677;DHT22;15858;48.338;11.078;2023-07-20T09:29:11;23.10;90.80
28677;DHT22;15858;48.338;11.078;2023-07-20T09:31:37;23.20;90.50
28677;DHT22;15858;48.338;11.078;2023-07-20T09:34:06;23.20;90.90
28677;DHT22;15858;48.338;11.078;2023-07-20T09:36:35;23.30;90.80
28677;DHT22;15858;48.338;11.078;2023-07-20T09:39:05;23.30;90.00
28677;DHT22;15858;48.338;11.078;2023-07-20T09:41:41;23.10;89.80
28677;DHT22;15858;48.338;11.078;2023-07-20T09:44:14;23.40;90.70
28677;DHT22;15858;48.338;11.078;2023-07-20T09:46:46;23.50;89.60
28677;DHT22;15858;48.338;11.078;2023-07-20T09:49:17;23.40;90.10
28677;DHT22;15858;48.338;11.078;2023-07-20T09:51:47;23.30;90.30
28677;DHT22;15858;48.338;11.078;2023-07-20T09:54:15;23.40;90.50
28677;DHT22;15858;48.338;11.078;2023-07-20T09:56:42;23.60;90.20
28677;DHT22;15858;48.338;11.078;2023-07-20T09:59:09;23.50;90.60
28677;DHT22;15858;48.338;11.078;2023-07-20T10:01:37;23.80;91.40
28677;DHT22;15858;48.338;11.078;2023-07-20T10:04:07;23.70;89.40
28677;DHT22;15858;48.338;11.078;2023-07-20T10:06:35;23.70;90.00
28677;DHT22;15858;48.338;11.078;2023-07-20T10:09:06;23.70;89.30
28677;DHT22;15858;48.338;11.078;2023-07-20T10:11:36;23.70;90.20
28677;DHT22;15858;48.338;11.078;2023-07-20T10:14:04;23.60;90.50
28677;DHT22;15858;48.338;11.078;2023-07-20T10:16:40;23.30;89.20
28677;DHT22;15858;48.338;11.078;2023-07-20T10:19:17;23.30;90.60
28677;DHT22;15858;48.338;11.078;2023-07-20T10:21:54;23.40;89.80
28677;DHT22;15858;48.338;11.078;2023-07-20T10:24:25;23.20;88.90
28677;DHT22;15858;48.338;11.078;2023-07-20T10:26:54;22.90;89.20
28677;DHT22;15858;48.338;11.078;2023-07-20T10:29:22;22.70;90.60
28677;DHT22;15858;48.338;11.078;2023-07-20T10:31:50;22.70;91.10
28677;DHT22;15858;48.338;11.078;2023-07-20T10:34:20;22.80;91.30
28677;DHT22;15858;48.338;11.078;2023-07-20T10:36:47;22.90;91.60
28677;DHT22;15858;48.338;11.078;2023-07-20T10:39:28;23.10;90.90
28677;DHT22;15858;48.338;11.078;2023-07-20T10:42:07;23.10;90.90
28677;DHT22;15858;48.338;11.078;2023-07-20T10:44:37;23.20;91.00
28677;DHT22;15858;48.338;11.078;2023-07-20T10:47:09;23.00;90.20
28677;DHT22;15858;48.338;11.078;2023-07-20T10:50:00;22.70;90.50
28677;DHT22;15858;48.338;11.078;2023-07-20T10:52:40;22.70;90.90
28677;DHT22;15858;48.338;11.078;2023-07-20T10:55:16;22.80;91.80
28677;DHT22;15858;48.338;11.078;2023-07-20T10:57:43;22.80;91.30
28677;DHT22;15858;48.338;11.078;2023-07-20T11:00:30;22.80;90.50
28677;DHT22;15858;48.338;11.078;2023-07-20T11:02:58;22.60;90.80
28677;DHT22;15858;48.338;11.078;2023-07-20T11:05:37;22.70;91.40
28677;DHT22;15858;48.338;11.078;2023-07-20T11:08:14;22.80;91.30
28677;DHT22;15858;48.338;11.078;2023-07-20T11:11:21;22.90;91.60
28677;DHT22;15858;48.338;11.078;2023-07-20T11:16:36;23.20;91.30
28677;DHT22;15858;48.338;11.078;2023-07-20T11:19:04;23.20;91.70
28677;DHT22;15858;48.338;11.078;2023-07-20T11:21:38;23.30;91.30
28677;DHT22;15858;48.338;11.078;2023-07-20T11:24:26;23.20;90.60
28677;DHT22;15858;48.338;11.078;2023-07-20T11:26:54;23.30;91.40
28677;DHT22;15858;48.338;11.078;2023-07-20T11:29:22;23.30;91.20
28677;DHT22;15858;48.338;11.078;2023-07-20T11:31:59;23.30;90.80
28677;DHT22;15858;48.338;11.078;2023-07-20T11:34:26;23.20;90.30
28677;DHT22;15858;48.338;11.078;2023-07-20T11:36:53;23.30;90.10
28677;DHT22;15858;48.338;11.078;2023-07-20T11:39:22;23.10;89.90
28677;DHT22;15858;48.338;11.078;2023-07-20T11:41:51;23.30;90.30
28677;DHT22;15858;48.338;11.078;2023-07-20T11:44:22;23.50;90.60
28677;DHT22;15858;48.338;11.078;2023-07-20T11:46:50;23.70;91.00
28677;DHT22;15858;48.338;11.078;2023-07-20T11:49:17;23.90;90.30
28677;DHT22;15858;48.338;11.078;2023-07-20T11:51:44;23.70;90.00
28677;DHT22;15858;48.338;11.078;2023-07-20T11:54:11;23.80;90.00
28677;DHT22;15858;48.338;11.078;2023-07-20T11:56:41;23.70;90.10
28677;DHT22;15858;48.338;11.078;2023-07-20T11:59:08;23.90;90.00
28677;DHT22;15858;48.338;11.078;2023-07-20T12:01:34;23.90;89.80
28677;DHT22;15858;48.338;11.078;2023-07-20T12:04:03;23.90;90.10
28677;DHT22;15858;48.338;11.078;2023-07-20T12:06:30;23.70;90.70
28677;DHT22;15858;48.338;11.078;2023-07-20T12:08:58;23.60;90.90
28677;DHT22;15858;48.338;11.078;2023-07-20T12:11:36;23.60;91.00
28677;DHT22;15858;48.338;11.078;2023-07-20T12:14:04;23.80;91.80
28677;DHT22;15858;48.338;11.078;2023-07-20T12:16:43;23.90;92.40
28677;DHT22;15858;48.338;11.078;2023-07-20T12:19:12;23.90;91.40
28677;DHT22;15858;48.338;11.078;2023-07-20T12:21:40;23.80;90.80
28677;DHT22;15858;48.338;11.078;2023-07-20T12:24:08;23.80;90.80
28677;DHT22;15858;48.338;11.078;2023-07-20T12:26:34;23.90;90.80
28677;DHT22;15858;48.338;11.078;2023-07-20T12:29:01;23.90;91.40
28677;DHT22;15858;48.338;11.078;2023-07-20T12:31:28;24.10;91.50
28677;DHT22;15858;48.338;11.078;2023-07-20T12:33:57;24.30;87.40
28677;DHT22;15858;48.338;11.078;2023-07-20T12:36:24;24.30;88.10
28677;DHT22;15858;48.338;11.078;2023-07-20T12:38:51;24.40;90.00
28677;DHT22;15858;48.338;11.078;2023-07-20T12:41:18;24.50;88.10
28677;DHT22;15858;48.338;11.078;2023-07-20T12:43:45;24.50;88.40
28677;DHT22;15858;48.338;11.078;2023-07-20T12:46:13;24.60;87.70
28677;DHT22;15858;48.338;11.078;2023-07-20T12:48:40;24.70;88.60
28677;DHT22;15858;48.338;11.078;2023-07-20T12:51:08;24.90;87.80
28677;DHT22;15858;48.338;11.078;2023-07-20T12:53:35;25.10;85.50
28677;DHT22;15858;48.338;11.078;2023-07-20T12:56:02;25.30;85.20
28677;DHT22;15858;48.338;11.078;2023-07-20T12:58:49;25.40;84.00
28677;DHT22;15858;48.338;11.078;2023-07-20T13:01:15;25.50;83.20
28677;DHT22;15858;48.338;11.078;2023-07-20T13:03:42;25.80;83.30
28677;DHT22;15858;48.338;11.078;2023-07-20T13:06:12;25.90;83.10
28677;DHT22;15858;48.338;11.078;2023-07-20T13:08:41;25.80;83.50
28677;DHT22;15858;48.338;11.078;2023-07-20T13:11:08;25.80;82.10
28677;DHT22;15858;48.338;11.078;2023-07-20T13:13:35;25.40;80.90
28677;DHT22;15858;48.338;11.078;2023-07-20T13:16:02;25.30;82.50
28677;DHT22;15858;48.338;11.078;2023-07-20T13:18:29;25.20;82.40
28677;DHT22;15858;48.338;11.078;2023-07-20T13:20:57;25.40;82.00
28677;DHT22;15858;48.338;11.078;2023-07-20T13:23:23;25.50;83.20
28677;DHT22;15858;48.338;11.078;2023-07-20T13:25:50;25.70;84.00
28677;DHT22;15858;48.338;11.078;2023-07-20T13:28:17;25.80;80.20
28677;DHT22;15858;48.338;11.078;2023-07-20T13:30:43;25.90;80.10
28677;DHT22;15858;48.338;11.078;2023-07-20T13:33:10;25.90;78.90
28677;DHT22;15858;48.338;11.078;2023-07-20T13:35:43;26.10;77.80
28677;DHT22;15858;48.338;11.078;2023-07-20T13:38:13;26.10;77.30
28677;DHT22;15858;48.338;11.078;2023-07-20T13:40:39;26.00;77.50
28677;DHT22;15858;48.338;11.078;2023-07-20T13:43:06;26.00;76.80
28677;DHT22;15858;48.338;11.078;2023-07-20T13:45:33;26.20;78.20
28677;DHT22;15858;48.338;11.078;2023-07-20T13:47:59;26.20;77.60
28677;DHT22;15858;48.338;11.078;2023-07-20T13:50:29;26.20;75.60
28677;DHT22;15858;48.338;11.078;2023-07-20T13:53:08;26.20;77.00
28677;DHT22;15858;48.338;11.078;2023-07-20T13:55:37;26.20;75.20
28677;DHT22;15858;48.338;11.078;2023-07-20T13:58:07;26.10;75.30
28677;DHT22;15858;48.338;11.078;2023-07-20T14:00:34;26.00;74.30
28677;DHT22;15858;48.338;11.078;2023-07-20T14:03:01;26.00;76.50
28677;DHT22;15858;48.338;11.078;2023-07-20T14:05:30;26.20;80.10
28677;DHT22;15858;48.338;11.078;2023-07-20T14:08:00;26.30;79.30
28677;DHT22;15858;48.338;11.078;2023-07-20T14:10:26;26.60;76.60
28677;DHT22;15858;48.338;11.078;2023-07-20T14:12:53;26.50;74.90
28677;DHT22;15858;48.338;11.078;2023-07-20T14:15:20;26.00;74.00
28677;DHT22;15858;48.338;11.078;2023-07-20T14:17:46;26.00;77.40
28677;DHT22;15858;48.338;11.078;2023-07-20T14:20:13;25.80;76.40
28677;DHT22;15858;48.338;11.078;2023-07-20T14:22:43;25.70;75.50
28677;DHT22;15858;48.338;11.078;2023-07-20T14:25:09;25.80;75.30
28677;DHT22;15858;48.338;11.078;2023-07-20T14:27:36;25.80;74.40
28677;DHT22;15858;48.338;11.078;2023-07-20T14:30:04;26.00;75.30
28677;DHT22;15858;48.338;11.078;2023-07-20T14:32:31;26.10;73.50
28677;DHT22;15858;48.338;11.078;2023-07-20T14:34:58;25.80;71.20
28677;DHT22;15858;48.338;11.078;2023-07-20T14:37:25;25.50;71.50
28677;DHT22;15858;48.338;11.078;2023-07-20T14:39:52;25.70;71.40
28677;DHT22;15858;48.338;11.078;2023-07-20T14:42:18;25.50;71.10
28677;DHT22;15858;48.338;11.078;2023-07-20T14:44:45;25.40;72.50
28677;DHT22;15858;48.338;11.078;2023-07-20T14:47:12;25.40;72.90
28677;DHT22;15858;48.338;11.078;2023-07-20T14:49:41;25.50;73.30
28677;DHT22;15858;48.338;11.078;2023-07-20T14:52:08;25.70;74.50
28677;DHT22;15858;48.338;11.078;2023-07-20T14:54:38;25.70;71.60
28677;DHT22;15858;48.338;11.078;2023-07-20T14:57:05;25.90;72.70
28677;DHT22;15858;48.338;11.078;2023-07-20T14:59:31;25.90;71.90
28677;DHT22;15858;48.338;11.078;2023-07-20T15:01:58;25.90;73.60
28677;DHT22;15858;48.338;11.078;2023-07-20T15:04:25;26.00;72.70
28677;DHT22;15858;48.338;11.078;2023-07-20T15:06:51;26.00;72.00
28677;DHT22;15858;48.338;11.078;2023-07-20T15:09:18;25.70;71.20
28677;DHT22;15858;48.338;11.078;2023-07-20T15:11:45;25.80;75.20
28677;DHT22;15858;48.338;11.078;2023-07-20T15:14:11;25.90;72.30
28677;DHT22;15858;48.338;11.078;2023-07-20T15:16:38;25.80;72.00
28677;DHT22;15858;48.338;11.078;2023-07-20T15:19:05;25.80;71.20
28677;DHT22;15858;48.338;11.078;2023-07-20T15:21:31;25.80;70.10
28677;DHT22;15858;48.338;11.078;2023-07-20T15:23:58;25.70;70.60
28677;DHT22;15858;48.338;11.078;2023-07-20T15:26:24;25.80;70.10
28677;DHT22;15858;48.338;11.078;2023-07-20T15:28:52;25.80;71.00
28677;DHT22;15858;48.338;11.078;2023-07-20T15:31:18;25.80;70.90
28677;DHT22;15858;48.338;11.078;2023-07-20T15:33:45;26.00;70.90